createdAt,value
2018-11-10T00:02:12.974Z,74.30
2018-11-10T00:04:41.156Z,84.03
2018-11-10T00:07:09.227Z,82.53
2018-11-10T00:09:37.484Z,82.25
2018-11-10T00:12:05.536Z,76.67
2018-11-10T00:14:33.603Z,76.30
2018-11-10T00:17:01.699Z,78.53
2018-11-10T00:19:29.849Z,75.08
2018-11-10T00:21:57.916Z,75.50
2018-11-10T00:24:26.134Z,81.05
2018-11-10T00:26:54.228Z,79.72
2018-11-10T00:29:22.302Z,85.05
2018-11-10T00:31:50.364Z,79.27
2018-11-10T00:34:18.486Z,88.30
2018-11-10T00:36:46.567Z,77.72
2018-11-10T00:39:14.712Z,86.15
2018-11-10T00:41:42.877Z,86.85
2018-11-10T00:44:10.987Z,81.47
2018-11-10T00:46:39.077Z,75.12
2018-11-10T00:49:07.321Z,96.25
2018-11-10T00:51:35.412Z,85.83
2018-11-10T00:54:03.469Z,82.25
2018-11-10T00:56:31.537Z,82.27
2018-11-10T00:58:59.640Z,82.15
2018-11-10T01:01:27.836Z,116.03
2018-11-10T01:03:55.926Z,103.53
2018-11-10T01:06:24.058Z,81.00
2018-11-10T01:08:52.171Z,83.75
2018-11-10T01:11:20.276Z,89.83
2018-11-10T01:13:48.377Z,78.22
2018-11-10T01:16:16.589Z,91.17
2018-11-10T01:18:44.665Z,88.80
2018-11-10T01:21:12.806Z,85.27
2018-11-10T01:23:40.909Z,87.37
2018-11-10T01:26:08.993Z,79.60
2018-11-10T01:28:37.085Z,86.15
2018-11-10T01:31:05.404Z,81.40
2018-11-10T01:33:33.478Z,90.55
2018-11-10T01:36:01.700Z,110.57
2018-11-10T01:38:29.828Z,87.53
2018-11-10T01:40:57.913Z,117.03
2018-11-10T01:43:26.009Z,104.70
2018-11-10T01:45:54.138Z,116.65
2018-11-10T01:48:22.240Z,109.97
2018-11-10T01:50:50.447Z,124.15
2018-11-10T01:53:18.548Z,117.35
2018-11-10T01:55:46.662Z,117.60
2018-11-10T01:58:14.781Z,124.60
2018-11-10T02:00:42.905Z,112.15
2018-11-10T02:03:11.109Z,115.67
2018-11-10T02:05:39.281Z,114.60
2018-11-10T02:08:07.353Z,105.87
2018-11-10T02:10:35.450Z,103.10
2018-11-10T02:13:03.551Z,82.33
2018-11-10T02:15:31.709Z,84.72
2018-11-10T02:17:59.785Z,81.82
2018-11-10T02:20:27.937Z,88.78
2018-11-10T02:22:56.025Z,74.85
2018-11-10T02:25:24.102Z,70.22
2018-11-10T02:27:52.172Z,71.97
2018-11-10T02:30:20.361Z,68.05
2018-11-10T02:32:48.453Z,67.25
2018-11-10T02:35:16.609Z,65.83
2018-11-10T02:37:44.712Z,62.70
2018-11-10T02:40:14.151Z,63.20
2018-11-10T02:42:42.706Z,65.35
2018-11-10T02:45:12.142Z,60.33
2018-11-10T02:47:40.294Z,64.42
2018-11-10T02:50:08.416Z,55.65
2018-11-10T02:52:36.579Z,55.43
2018-11-10T02:55:05.663Z,54.73
2018-11-10T02:57:33.737Z,57.20
2018-11-10T03:00:01.906Z,58.33
2018-11-10T03:02:29.984Z,64.90
2018-11-10T03:04:58.126Z,63.48
2018-11-10T03:07:26.305Z,53.92
2018-11-10T03:09:54.505Z,53.35
2018-11-10T03:12:22.598Z,53.90
2018-11-10T03:14:50.871Z,56.73
2018-11-10T03:17:18.950Z,56.42
2018-11-10T03:19:47.277Z,59.33
2018-11-10T03:22:15.477Z,51.40
2018-11-10T03:24:43.673Z,51.67
2018-11-10T03:27:11.749Z,52.98
2018-11-10T03:29:39.956Z,48.87
2018-11-10T03:32:08.297Z,53.92
2018-11-10T03:34:36.445Z,54.70
2018-11-10T03:37:04.628Z,52.50
2018-11-10T03:39:32.804Z,55.73
2018-11-10T03:42:00.895Z,52.00
2018-11-10T03:44:28.999Z,53.92
2018-11-10T03:46:57.105Z,57.83
2018-11-10T03:49:25.189Z,53.83
2018-11-10T03:51:53.278Z,51.95
2018-11-10T03:54:21.375Z,58.63
2018-11-10T03:56:49.520Z,57.10
2018-11-10T03:59:17.616Z,55.30
2018-11-10T04:01:45.727Z,52.48
2018-11-10T04:04:13.814Z,52.65
2018-11-10T04:06:41.997Z,53.30
2018-11-10T04:09:10.166Z,59.58
2018-11-10T04:11:38.268Z,57.08
2018-11-10T04:14:06.398Z,57.23
2018-11-10T04:16:34.537Z,59.47
2018-11-10T04:19:02.625Z,56.40
2018-11-10T04:21:30.774Z,57.75
2018-11-10T04:23:58.904Z,51.65
2018-11-10T04:26:27.045Z,53.55
2018-11-10T04:28:55.159Z,52.00
2018-11-10T04:31:23.277Z,56.48
2018-11-10T04:33:51.394Z,59.23
2018-11-10T04:36:19.536Z,56.33
2018-11-10T04:38:47.687Z,56.08
2018-11-10T04:41:15.906Z,49.90
2018-11-10T04:43:44.013Z,52.27
2018-11-10T04:46:12.126Z,50.48
2018-11-10T04:48:40.957Z,57.50
2018-11-10T04:51:09.265Z,56.90
2018-11-10T04:53:37.409Z,53.80
2018-11-10T04:56:05.652Z,53.80
2018-11-10T04:58:33.761Z,54.65
2018-11-10T05:01:01.926Z,53.85
2018-11-10T05:03:30.001Z,51.33
2018-11-10T05:05:58.137Z,53.92
2018-11-10T05:08:26.266Z,52.13
2018-11-10T05:10:54.417Z,49.10
2018-11-10T05:13:22.595Z,53.42
2018-11-10T05:15:50.702Z,52.98
2018-11-10T05:18:18.972Z,52.35
2018-11-10T05:20:47.155Z,54.67
2018-11-10T05:23:15.329Z,53.35
2018-11-10T05:25:43.517Z,54.77
2018-11-10T05:28:11.631Z,56.45
2018-11-10T05:30:39.777Z,54.20
2018-11-10T05:33:08.005Z,55.40
2018-11-10T05:35:36.080Z,56.20
2018-11-10T05:38:04.641Z,54.73
2018-11-10T05:40:32.744Z,53.78
2018-11-10T05:43:00.918Z,53.38
2018-11-10T05:45:29.005Z,57.05
2018-11-10T05:47:57.301Z,61.40
2018-11-10T05:50:25.438Z,56.28
2018-11-10T05:52:53.843Z,56.37
2018-11-10T05:55:21.975Z,59.13
2018-11-10T05:57:50.077Z,58.08
2018-11-10T06:00:19.529Z,59.40
2018-11-10T06:02:47.677Z,57.15
2018-11-10T06:05:15.999Z,61.90
2018-11-10T06:07:44.080Z,60.00
2018-11-10T06:10:12.704Z,60.23
2018-11-10T06:12:41.177Z,61.35
2018-11-10T06:15:10.051Z,59.33
2018-11-10T06:17:38.259Z,67.53
2018-11-10T06:20:08.000Z,69.47
2018-11-10T06:22:36.104Z,72.27
2018-11-10T06:25:04.553Z,86.85
2018-11-10T06:27:32.783Z,85.97
2018-11-10T06:30:00.896Z,74.67
2018-11-10T06:32:29.200Z,91.45
2018-11-10T06:34:57.315Z,77.70
2018-11-10T06:37:25.433Z,78.15
2018-11-10T06:39:53.522Z,78.22
2018-11-10T06:42:21.649Z,89.65
2018-11-10T06:44:49.749Z,71.77
2018-11-10T06:47:17.941Z,78.10
2018-11-10T06:49:46.110Z,74.25
2018-11-10T06:52:15.402Z,88.00
2018-11-10T06:54:43.525Z,108.37
2018-11-10T06:57:11.640Z,91.55
2018-11-10T06:59:39.789Z,92.03
2018-11-10T07:02:08.046Z,110.63
2018-11-10T07:04:36.205Z,110.17
2018-11-10T07:07:04.405Z,117.72
2018-11-10T07:09:32.736Z,104.83
2018-11-10T07:12:00.714Z,112.57
2018-11-10T07:14:29.037Z,103.07
2018-11-10T07:16:57.190Z,93.90
2018-11-10T07:19:25.294Z,108.30
2018-11-10T07:21:53.384Z,103.70
2018-11-10T07:24:21.517Z,102.60
2018-11-10T07:26:49.637Z,100.65
2018-11-10T07:29:18.149Z,98.10
2018-11-10T07:31:46.494Z,95.03
2018-11-10T07:34:14.553Z,89.35
2018-11-10T07:36:42.739Z,108.37
2018-11-10T07:39:11.503Z,115.75
2018-11-10T07:41:39.748Z,111.75
2018-11-10T07:44:08.249Z,100.33
2018-11-10T07:46:36.649Z,98.97
2018-11-10T07:49:04.856Z,93.95
2018-11-10T07:51:33.552Z,99.40
2018-11-10T07:54:01.771Z,93.78
2018-11-10T07:56:29.874Z,101.62
2018-11-10T07:58:57.987Z,99.85
2018-11-10T08:01:26.072Z,94.65
2018-11-10T08:03:54.174Z,96.70
2018-11-10T08:06:22.268Z,102.87
2018-11-10T08:08:50.542Z,105.17
2018-11-10T08:11:18.690Z,119.37
2018-11-10T08:13:46.849Z,121.72
2018-11-10T08:16:14.976Z,127.27
2018-11-10T08:18:43.270Z,116.73
2018-11-10T08:21:11.334Z,123.75
2018-11-10T08:23:39.469Z,127.92
2018-11-10T08:26:07.915Z,90.38
2018-11-10T08:28:35.993Z,97.15
2018-11-10T08:31:04.207Z,92.67
2018-11-10T08:33:32.337Z,89.92
2018-11-10T08:36:00.510Z,99.80
2018-11-10T08:38:28.697Z,97.67
2018-11-10T08:40:56.849Z,108.70
2018-11-10T08:43:25.008Z,129.53
2018-11-10T08:45:53.142Z,95.40
2018-11-10T08:48:21.281Z,88.87
2018-11-10T08:50:49.477Z,100.00
2018-11-10T08:53:17.674Z,105.70
2018-11-10T08:55:45.790Z,101.95
2018-11-10T08:58:13.952Z,94.65
2018-11-10T09:00:42.128Z,99.43
2018-11-10T09:03:10.390Z,101.07
2018-11-10T09:05:38.590Z,96.08
2018-11-10T09:08:06.789Z,96.17
2018-11-10T09:10:34.941Z,93.00
2018-11-10T09:13:03.029Z,94.52
2018-11-10T09:15:31.265Z,90.70
2018-11-10T09:17:59.773Z,99.72
2018-11-10T09:20:27.999Z,107.10
2018-11-10T09:22:56.084Z,102.12
2018-11-10T09:25:24.248Z,89.83
2018-11-10T09:27:52.351Z,89.95
2018-11-10T09:30:20.590Z,82.80
2018-11-10T09:32:48.752Z,92.10
2018-11-10T09:35:16.985Z,81.32
2018-11-10T09:37:45.086Z,86.95
2018-11-10T09:40:14.393Z,76.82
2018-11-10T09:42:42.808Z,69.07
2018-11-10T09:45:12.382Z,72.25
2018-11-10T09:47:40.718Z,68.10
2018-11-10T09:50:11.135Z,70.28
2018-11-10T09:52:39.264Z,67.58
2018-11-10T09:55:07.558Z,64.00
2018-11-10T09:57:35.806Z,65.83
2018-11-10T10:00:05.771Z,63.33
2018-11-10T10:02:34.302Z,57.00
2018-11-10T10:05:02.034Z,53.73
2018-11-10T10:07:30.139Z,57.25
2018-11-10T10:09:58.261Z,61.40
2018-11-10T10:12:26.410Z,57.65
2018-11-10T10:14:54.492Z,58.23
2018-11-10T10:17:22.668Z,58.98
2018-11-10T10:19:50.810Z,53.10
2018-11-10T10:22:19.095Z,54.27
2018-11-10T10:25:50.453Z,57.78
2018-11-10T10:28:18.751Z,55.20
2018-11-10T10:30:46.798Z,56.10
2018-11-10T10:33:14.998Z,60.83
2018-11-10T10:35:43.129Z,54.27
2018-11-10T10:38:11.277Z,57.15
2018-11-10T10:40:39.526Z,60.12
2018-11-10T10:43:07.838Z,55.15
2018-11-10T10:45:35.786Z,56.63
2018-11-10T10:48:03.904Z,55.98
2018-11-10T10:50:32.078Z,56.25
2018-11-10T10:53:00.195Z,53.07
2018-11-10T10:55:28.349Z,49.43
2018-11-10T10:57:56.448Z,51.30
2018-11-10T11:00:29.792Z,52.98
2018-11-10T11:03:02.490Z,52.55
2018-11-10T11:05:35.832Z,50.75
2018-11-10T11:08:03.971Z,48.75
2018-11-10T11:10:32.237Z,49.70
2018-11-10T11:13:00.417Z,49.73
2018-11-10T11:15:28.866Z,48.38
2018-11-10T11:17:56.757Z,51.25
2018-11-10T11:20:24.861Z,51.23
2018-11-10T11:22:53.009Z,52.33
2018-11-10T11:25:21.240Z,51.53
2018-11-10T11:27:49.377Z,50.83
2018-11-10T11:30:17.536Z,50.00
2018-11-10T11:32:45.641Z,49.00
2018-11-10T11:35:14.340Z,54.35
2018-11-10T11:37:42.800Z,53.55
2018-11-10T11:40:12.474Z,50.98
2018-11-10T11:42:40.785Z,50.75
2018-11-10T11:45:10.135Z,49.75
2018-11-10T11:47:38.449Z,50.52
2018-11-10T11:50:08.046Z,50.48
2018-11-10T11:52:36.249Z,50.38
2018-11-10T11:55:04.571Z,49.30
2018-11-10T11:57:32.724Z,49.38
2018-11-10T12:00:01.887Z,47.88
2018-11-10T12:02:30.041Z,44.35
2018-11-10T12:04:58.159Z,45.60
2018-11-10T12:07:26.328Z,48.38
2018-11-10T12:09:54.575Z,46.65
2018-11-10T12:12:22.685Z,46.30
2018-11-10T12:14:50.790Z,46.83
2018-11-10T12:17:19.060Z,46.13
2018-11-10T12:19:47.154Z,47.27
2018-11-10T12:22:15.365Z,49.10
2018-11-10T12:24:43.571Z,44.75
2018-11-10T12:27:11.651Z,43.30
2018-11-10T12:29:39.754Z,42.23
2018-11-10T12:32:07.987Z,42.35
2018-11-10T12:34:36.114Z,39.65
2018-11-10T12:37:04.369Z,40.12
2018-11-10T12:39:32.550Z,38.00
2018-11-10T12:42:01.622Z,40.12
2018-11-10T12:44:29.753Z,38.95
2018-11-10T12:46:57.970Z,40.10
2018-11-10T12:49:26.112Z,38.30
2018-11-10T12:51:54.245Z,38.20
2018-11-10T12:54:22.355Z,37.98
2018-11-10T12:56:50.558Z,37.88
2018-11-10T12:59:18.673Z,37.58
2018-11-10T13:01:46.863Z,36.30
2018-11-10T13:04:15.061Z,39.73
2018-11-10T13:06:43.174Z,36.93
2018-11-10T13:09:11.908Z,39.20
2018-11-10T13:11:40.140Z,39.20
2018-11-10T13:14:09.557Z,35.45
2018-11-10T13:16:37.779Z,35.40
2018-11-10T13:19:06.727Z,36.15
2018-11-10T13:21:34.883Z,35.40
2018-11-10T13:24:02.989Z,33.98
2018-11-10T13:26:31.081Z,34.45
2018-11-10T13:28:59.237Z,32.78
2018-11-10T13:31:27.659Z,32.45
2018-11-10T13:33:55.641Z,32.48
2018-11-10T13:36:23.924Z,30.82
2018-11-10T13:38:52.199Z,31.23
2018-11-10T13:41:20.599Z,27.85
2018-11-10T13:43:48.816Z,29.17
2018-11-10T13:46:17.581Z,26.70
2018-11-10T13:48:45.673Z,27.20
2018-11-10T13:51:14.196Z,27.42
2018-11-10T13:53:42.101Z,27.10
2018-11-10T13:56:10.430Z,26.33
2018-11-10T13:58:38.530Z,25.50
2018-11-10T14:01:06.853Z,25.87
2018-11-10T14:03:35.052Z,26.77
2018-11-10T14:06:03.387Z,29.10
2018-11-10T14:08:31.615Z,27.20
2018-11-10T14:10:59.831Z,28.75
2018-11-10T14:13:28.001Z,23.90
2018-11-10T14:15:56.116Z,21.80
2018-11-10T14:18:24.684Z,21.02
2018-11-10T14:20:52.886Z,21.93
2018-11-10T14:23:21.144Z,22.55
2018-11-10T14:25:49.283Z,21.87
2018-11-10T14:28:17.493Z,21.37
2018-11-10T14:30:45.662Z,22.42
2018-11-10T14:33:13.823Z,21.62
2018-11-10T14:35:41.941Z,20.43
2018-11-10T14:38:10.125Z,20.65
2018-11-10T14:40:38.260Z,22.62
2018-11-10T14:43:06.605Z,22.07
2018-11-10T14:45:34.709Z,23.57
2018-11-10T14:48:03.028Z,24.63
2018-11-10T14:50:32.422Z,22.25
2018-11-10T14:53:00.879Z,24.25
2018-11-10T14:55:28.830Z,22.00
2018-11-10T14:57:56.977Z,22.85
2018-11-10T15:00:28.334Z,21.65
2018-11-10T15:02:56.594Z,24.53
2018-11-10T15:05:24.799Z,22.50
2018-11-10T15:07:53.082Z,23.18
2018-11-10T15:10:21.206Z,22.02
2018-11-10T15:12:49.360Z,21.57
2018-11-10T15:15:18.453Z,21.65
2018-11-10T15:17:47.091Z,21.80
2018-11-10T15:20:16.402Z,20.37
2018-11-10T15:22:44.573Z,20.72
2018-11-10T15:25:14.095Z,21.37
2018-11-10T15:27:44.148Z,21.05
2018-11-10T15:30:14.122Z,20.02
2018-11-10T15:32:43.314Z,21.97
2018-11-10T15:35:13.115Z,22.60
2018-11-10T15:37:42.153Z,21.55
2018-11-10T15:40:12.759Z,21.77
2018-11-10T15:42:43.161Z,21.25
2018-11-10T15:45:12.406Z,19.73
2018-11-10T15:47:40.956Z,20.40
2018-11-10T15:50:10.489Z,20.02
2018-11-10T15:52:38.675Z,21.17
2018-11-10T15:55:07.909Z,20.40
2018-11-10T15:57:36.813Z,21.73
2018-11-10T16:00:05.521Z,20.30
2018-11-10T16:02:33.608Z,18.65
2018-11-10T16:05:01.718Z,18.30
2018-11-10T16:07:29.864Z,18.27
2018-11-10T16:09:58.533Z,19.23
2018-11-10T16:12:26.658Z,19.60
2018-11-10T16:14:54.815Z,19.17
2018-11-10T16:17:22.948Z,18.23
2018-11-10T16:19:51.147Z,16.60
2018-11-10T16:22:19.322Z,17.00
2018-11-10T16:24:47.437Z,14.23
2018-11-10T16:27:15.677Z,14.25
2018-11-10T16:29:43.801Z,13.50
2018-11-10T16:32:18.557Z,15.40
2018-11-10T16:34:46.679Z,12.80
2018-11-10T16:37:14.830Z,14.15
2018-11-10T16:39:42.905Z,12.13
2018-11-10T16:42:11.243Z,13.03
2018-11-10T16:44:39.548Z,12.35
2018-11-10T16:47:07.666Z,12.75
2018-11-10T16:49:35.855Z,12.53
2018-11-10T16:52:04.022Z,11.10
2018-11-10T16:54:32.343Z,11.25
2018-11-10T16:57:00.451Z,12.37
2018-11-10T16:59:28.596Z,10.65
2018-11-10T17:01:56.739Z,11.35
2018-11-10T17:04:24.857Z,10.97
2018-11-10T17:06:53.025Z,12.60
2018-11-10T17:09:21.182Z,10.93
2018-11-10T17:14:23.907Z,9.78
2018-11-10T17:16:51.995Z,9.55
2018-11-10T17:19:20.139Z,9.83
2018-11-10T17:21:48.389Z,10.78
2018-11-10T17:24:16.547Z,9.85
2018-11-10T17:26:44.660Z,9.63
2018-11-10T17:29:12.786Z,9.73
2018-11-10T17:31:40.939Z,9.30
2018-11-10T17:34:09.165Z,9.87
2018-11-10T17:36:37.257Z,8.93
2018-11-10T17:39:07.447Z,9.70
2018-11-10T17:41:35.529Z,9.45
2018-11-10T17:44:03.719Z,9.43
2018-11-10T17:46:31.938Z,8.58
2018-11-10T17:49:00.067Z,8.68
2018-11-10T17:51:28.284Z,8.83
2018-11-10T17:53:56.406Z,8.40
2018-11-10T17:56:24.560Z,8.50
2018-11-10T17:58:52.681Z,8.70
2018-11-10T18:01:21.015Z,8.65
2018-11-10T18:03:49.248Z,8.60
2018-11-10T18:06:17.424Z,7.72
2018-11-10T18:08:45.633Z,8.40
2018-11-10T18:11:13.821Z,7.33
2018-11-10T18:13:41.970Z,8.20
2018-11-10T18:16:10.153Z,7.50
2018-11-10T18:18:38.297Z,8.70
2018-11-10T18:21:06.515Z,7.70
2018-11-10T18:23:34.606Z,7.40
2018-11-10T18:26:02.745Z,7.40
2018-11-10T18:28:30.869Z,7.95
2018-11-10T18:30:59.088Z,8.85
2018-11-10T18:33:27.250Z,9.73
2018-11-10T18:35:55.381Z,8.48
2018-11-10T18:38:23.503Z,8.40
2018-11-10T18:40:51.664Z,8.35
2018-11-10T18:43:19.836Z,9.95
2018-11-10T18:45:47.946Z,8.00
2018-11-10T18:48:16.227Z,8.35
2018-11-10T18:50:44.428Z,9.20
2018-11-10T18:53:12.538Z,10.23
2018-11-10T18:55:40.676Z,8.73
2018-11-10T18:58:08.877Z,8.58
2018-11-10T19:00:36.974Z,8.75
2018-11-10T19:03:05.172Z,8.23
2018-11-10T19:05:33.270Z,8.75
2018-11-10T19:08:01.409Z,8.85
2018-11-10T19:10:29.528Z,8.63
2018-11-10T19:12:57.896Z,9.25
2018-11-10T19:15:25.944Z,9.60
2018-11-10T19:17:54.147Z,11.30
2018-11-10T19:20:22.257Z,9.75
2018-11-10T19:22:50.502Z,10.03
2018-11-10T19:25:18.626Z,9.80
2018-11-10T19:27:46.967Z,10.15
2018-11-10T19:30:18.474Z,10.28
2018-11-10T19:32:47.481Z,10.20
2018-11-10T19:35:16.273Z,14.10
2018-11-10T19:37:44.810Z,10.82
2018-11-10T19:40:13.038Z,11.03
2018-11-10T19:42:42.209Z,12.30
2018-11-10T19:45:11.091Z,11.30
2018-11-10T19:47:40.494Z,11.80
2018-11-10T19:50:09.113Z,11.20
2018-11-10T19:52:37.270Z,13.55
2018-11-10T19:55:08.209Z,13.25
2018-11-10T19:57:36.277Z,18.98
2018-11-10T20:00:07.572Z,16.90
2018-11-10T20:02:35.893Z,17.50
2018-11-10T20:05:04.658Z,19.40
2018-11-10T20:07:32.834Z,18.77
2018-11-10T20:10:00.963Z,18.70
2018-11-10T20:12:30.153Z,18.55
2018-11-10T20:14:58.290Z,18.67
2018-11-10T20:17:26.578Z,18.50
2018-11-10T20:19:54.794Z,19.27
2018-11-10T20:22:22.942Z,19.77
2018-11-10T20:24:51.173Z,21.85
2018-11-10T20:27:19.330Z,22.20
2018-11-10T20:29:47.622Z,22.15
2018-11-10T20:32:15.807Z,22.45
2018-11-10T20:34:44.097Z,20.10
2018-11-10T20:37:12.245Z,22.70
2018-11-10T20:39:40.593Z,18.80
2018-11-10T20:42:08.815Z,19.30
2018-11-10T20:44:37.061Z,20.02
2018-11-10T20:47:05.477Z,18.85
2018-11-10T20:49:33.609Z,20.33
2018-11-10T20:52:01.909Z,21.07
2018-11-10T20:54:30.098Z,21.48
2018-11-10T20:56:58.478Z,18.23
2018-11-10T20:59:26.776Z,19.98
2018-11-10T21:01:54.882Z,18.07
2018-11-10T21:04:23.104Z,19.83
2018-11-10T21:06:51.181Z,17.17
2018-11-10T21:09:19.422Z,18.48
2018-11-10T21:11:47.627Z,19.15
2018-11-10T21:14:16.041Z,18.25
2018-11-10T21:16:44.227Z,15.38
2018-11-10T21:19:12.518Z,14.35
2018-11-10T21:21:40.629Z,12.88
2018-11-10T21:24:08.973Z,12.63
2018-11-10T21:26:37.097Z,10.85
2018-11-10T21:29:05.309Z,11.08
2018-11-10T21:31:33.376Z,9.65
2018-11-10T21:34:01.555Z,8.73
2018-11-10T21:36:29.637Z,9.70
2018-11-10T21:38:57.800Z,7.58
2018-11-10T21:41:25.884Z,9.25
2018-11-10T21:43:54.006Z,8.58
2018-11-10T21:46:22.110Z,7.75
2018-11-10T21:48:50.252Z,7.12
2018-11-10T21:51:18.364Z,7.80
2018-11-10T21:53:46.521Z,9.93
2018-11-10T21:56:14.693Z,8.23
2018-11-10T21:58:42.772Z,7.20
2018-11-10T22:01:10.927Z,7.03
2018-11-10T22:03:39.185Z,9.13
2018-11-10T22:06:07.366Z,10.00
2018-11-10T22:08:35.566Z,9.38
2018-11-10T22:11:03.701Z,8.75
2018-11-10T22:13:31.810Z,7.97
2018-11-10T22:15:59.976Z,8.40
2018-11-10T22:18:28.026Z,8.03
2018-11-10T22:20:56.256Z,8.73
2018-11-10T22:23:25.426Z,9.15
2018-11-10T22:25:53.562Z,10.45
2018-11-10T22:28:21.773Z,10.20
2018-11-10T22:30:49.874Z,10.58
2018-11-10T22:33:18.014Z,9.70
2018-11-10T22:35:46.261Z,11.07
2018-11-10T22:38:14.369Z,12.28
2018-11-10T22:40:42.541Z,11.20
2018-11-10T22:43:10.633Z,11.57
2018-11-10T22:45:38.793Z,13.60
2018-11-10T22:48:06.924Z,12.85
2018-11-10T22:50:35.073Z,14.43
2018-11-10T22:53:03.220Z,15.85
2018-11-10T22:55:31.350Z,14.55
2018-11-10T22:57:59.517Z,13.08
2018-11-10T23:00:28.273Z,16.62
2018-11-10T23:02:57.765Z,19.35
2018-11-10T23:05:26.141Z,18.00
2018-11-10T23:07:54.304Z,18.00
2018-11-10T23:10:22.495Z,19.77
2018-11-10T23:12:51.614Z,18.52
2018-11-10T23:15:19.765Z,21.12
2018-11-10T23:17:47.893Z,19.50
2018-11-10T23:20:17.261Z,21.85
2018-11-10T23:22:45.400Z,23.52
2018-11-10T23:25:14.700Z,25.55
2018-11-10T23:27:42.917Z,26.68
2018-11-10T23:30:13.610Z,25.60
2018-11-10T23:32:41.920Z,27.22
2018-11-10T23:35:10.785Z,26.90
2018-11-10T23:37:39.280Z,28.75
2018-11-10T23:40:08.957Z,28.95
2018-11-10T23:42:37.089Z,39.33
2018-11-10T23:45:06.154Z,29.40
2018-11-10T23:47:34.292Z,31.27
2018-11-10T23:50:02.410Z,34.70
2018-11-10T23:52:30.600Z,32.85
2018-11-10T23:54:58.798Z,32.40
2018-11-10T23:57:26.941Z,31.62
2018-11-10T23:59:55.065Z,34.98
